createdAt,value
2019-04-05T00:00:40.601Z,13.00
2019-04-05T00:03:11.143Z,12.90
2019-04-05T00:05:41.724Z,12.90
2019-04-05T00:08:12.252Z,12.90
2019-04-05T00:10:42.735Z,12.80
2019-04-05T00:13:13.228Z,12.80
2019-04-05T00:15:43.756Z,12.70
2019-04-05T00:18:14.489Z,12.70
2019-04-05T00:20:44.985Z,12.70
2019-04-05T00:23:15.501Z,12.70
2019-04-05T00:25:46.269Z,12.60
2019-04-05T00:28:16.813Z,12.50
2019-04-05T00:30:47.446Z,12.60
2019-04-05T00:33:18.019Z,12.50
2019-04-05T00:35:49.999Z,12.50
2019-04-05T00:38:20.567Z,12.50
2019-04-05T00:40:51.081Z,12.50
2019-04-05T00:43:21.778Z,12.50
2019-04-05T00:45:52.396Z,12.60
2019-04-05T00:48:22.912Z,12.60
2019-04-05T00:50:53.630Z,12.60
2019-04-05T00:53:24.191Z,12.60
2019-04-05T00:55:55.045Z,12.50
2019-04-05T00:58:27.637Z,12.50
2019-04-05T01:00:58.359Z,12.60
2019-04-05T01:03:28.942Z,12.60
2019-04-05T01:05:59.587Z,12.70
2019-04-05T01:08:30.172Z,12.70
2019-04-05T01:11:00.871Z,12.70
2019-04-05T01:13:31.479Z,12.70
2019-04-05T01:16:02.004Z,12.70
2019-04-05T01:18:32.569Z,12.80
2019-04-05T01:21:04.646Z,12.80
2019-04-05T01:23:36.306Z,12.80
2019-04-05T01:26:07.503Z,12.80
2019-04-05T01:28:38.380Z,12.80
2019-04-05T01:31:08.845Z,12.80
2019-04-05T01:33:39.737Z,12.80
2019-04-05T01:36:10.620Z,12.80
2019-04-05T01:38:41.170Z,12.80
2019-04-05T01:41:11.901Z,12.70
2019-04-05T01:43:42.385Z,12.70
2019-04-05T01:46:13.050Z,12.60
2019-04-05T01:48:43.898Z,12.60
2019-04-05T01:51:14.730Z,12.50
2019-04-05T01:53:45.210Z,12.50
2019-04-05T01:56:15.952Z,12.50
2019-04-05T01:58:46.557Z,12.40
2019-04-05T02:01:17.464Z,12.30
2019-04-05T02:03:47.954Z,12.30
2019-04-05T02:06:18.601Z,12.30
2019-04-05T02:08:49.414Z,12.20
2019-04-05T02:11:19.957Z,12.10
2019-04-05T02:13:50.600Z,12.10
2019-04-05T02:16:21.152Z,12.10
2019-04-05T02:18:51.734Z,12.00
2019-04-05T02:21:22.567Z,12.00
2019-04-05T02:23:53.077Z,11.90
2019-04-05T02:26:23.524Z,11.90
2019-04-05T02:28:54.086Z,11.90
2019-04-05T02:31:26.105Z,11.90
2019-04-05T02:33:56.753Z,11.80
2019-04-05T02:36:27.470Z,11.80
2019-04-05T02:39:00.156Z,11.70
2019-04-05T02:41:32.181Z,11.70
2019-04-05T02:44:05.506Z,11.60
2019-04-05T02:46:36.287Z,11.70
2019-04-05T02:49:07.396Z,11.70
2019-04-05T02:51:40.278Z,11.80
2019-04-05T02:54:11.953Z,11.80
2019-04-05T02:56:43.697Z,11.70
2019-04-05T02:59:16.370Z,11.70
2019-04-05T03:01:47.266Z,11.80
2019-04-05T03:04:17.756Z,11.80
2019-04-05T03:06:50.050Z,11.70
2019-04-05T03:09:21.026Z,11.70
2019-04-05T03:11:52.634Z,11.70
2019-04-05T03:14:23.522Z,11.70
2019-04-05T03:16:56.178Z,11.70
2019-04-05T03:19:30.009Z,11.60
2019-04-05T03:22:06.095Z,11.60
2019-04-05T03:24:39.526Z,11.60
2019-04-05T03:27:18.954Z,11.60
2019-04-05T03:29:49.565Z,11.50
2019-04-05T03:32:20.473Z,11.50
2019-04-05T03:34:51.187Z,11.60
2019-04-05T03:37:22.491Z,11.50
2019-04-05T03:39:55.754Z,11.50
2019-04-05T03:42:27.127Z,11.40
2019-04-05T03:44:57.815Z,11.40
2019-04-05T03:47:28.361Z,11.30
2019-04-05T03:49:59.252Z,11.30
2019-04-05T03:52:29.919Z,11.30
2019-04-05T03:55:01.450Z,11.30
2019-04-05T03:57:31.921Z,11.20
2019-04-05T04:00:02.592Z,11.20
2019-04-05T04:02:33.373Z,11.20
2019-04-05T04:05:04.237Z,11.20
2019-04-05T04:07:34.867Z,11.20
2019-04-05T04:10:05.978Z,11.10
2019-04-05T04:12:37.517Z,11.10
2019-04-05T04:15:15.545Z,11.10
2019-04-05T04:17:46.453Z,11.10
2019-04-05T04:20:37.715Z,11.10
2019-04-05T04:23:09.996Z,11.10
2019-04-05T04:25:41.439Z,11.10
2019-04-05T04:28:12.570Z,11.10
2019-04-05T04:30:43.215Z,11.20
2019-04-05T04:33:14.462Z,11.20
2019-04-05T04:35:45.261Z,11.30
2019-04-05T04:38:16.036Z,11.30
2019-04-05T04:40:47.201Z,11.30
2019-04-05T04:43:18.119Z,11.40
2019-04-05T04:45:48.968Z,11.40
2019-04-05T04:48:19.538Z,11.40
2019-04-05T04:50:50.938Z,11.50
2019-04-05T04:53:21.635Z,11.50
2019-04-05T04:55:55.289Z,11.50
2019-04-05T04:58:26.782Z,11.50
2019-04-05T05:00:57.892Z,11.60
2019-04-05T05:03:28.708Z,11.60
2019-04-05T05:05:59.399Z,11.70
2019-04-05T05:08:30.136Z,11.80
2019-04-05T05:11:13.649Z,12.00
2019-04-05T05:13:33.580Z,12.10
2019-04-05T05:16:04.622Z,12.30
2019-04-05T05:18:35.316Z,12.60
2019-04-05T05:21:06.541Z,13.00
2019-04-05T05:23:37.718Z,13.30
2019-04-05T05:26:08.296Z,13.70
2019-04-05T05:28:38.856Z,13.80
2019-04-05T05:31:09.769Z,14.20
2019-04-05T05:33:40.337Z,15.20
2019-04-05T05:36:10.914Z,16.20
2019-04-05T05:38:41.487Z,16.80
2019-04-05T05:41:12.163Z,17.80
2019-04-05T05:43:42.664Z,18.80
2019-04-05T05:46:14.208Z,19.20
2019-04-05T05:48:45.742Z,19.50
2019-04-05T05:51:16.384Z,19.60
2019-04-05T05:53:47.090Z,20.20
2019-04-05T05:56:17.732Z,20.60
2019-04-05T05:58:50.489Z,21.00
2019-04-05T06:01:21.008Z,20.90
2019-04-05T06:03:51.482Z,20.80
2019-04-05T06:06:21.968Z,20.90
2019-04-05T06:08:52.443Z,21.00
2019-04-05T06:11:22.988Z,21.10
2019-04-05T06:13:53.512Z,21.30
2019-04-05T06:16:25.062Z,22.10
2019-04-05T06:18:55.605Z,22.50
2019-04-05T06:21:26.080Z,22.30
2019-04-05T06:23:56.599Z,22.10
2019-04-05T06:26:27.061Z,21.80
2019-04-05T06:28:57.645Z,20.60
2019-04-05T06:31:28.104Z,20.00
2019-04-05T06:33:58.728Z,19.10
2019-04-05T06:36:29.239Z,18.90
2019-04-05T06:38:59.817Z,18.70
2019-04-05T06:41:30.293Z,18.10
2019-04-05T06:44:00.982Z,18.00
2019-04-05T06:46:31.618Z,17.80
2019-04-05T06:49:02.272Z,18.20
2019-04-05T06:51:32.773Z,19.00
2019-04-05T06:54:03.524Z,19.60
2019-04-05T06:56:34.037Z,19.60
2019-04-05T06:59:04.981Z,19.90
2019-04-05T07:01:35.475Z,19.90
2019-04-05T07:04:06.058Z,19.40
2019-04-05T07:06:37.583Z,18.90
2019-04-05T07:09:08.167Z,18.60
2019-04-05T07:11:38.762Z,18.70
2019-04-05T07:14:09.242Z,19.10
2019-04-05T07:16:39.729Z,19.40
2019-04-05T07:19:10.201Z,19.40
2019-04-05T07:21:40.681Z,19.40
2019-04-05T07:24:11.518Z,19.50
2019-04-05T07:26:42.024Z,19.50
2019-04-05T07:29:12.597Z,19.70
2019-04-05T07:31:43.103Z,19.70
2019-04-05T07:34:13.608Z,19.70
2019-04-05T07:36:44.119Z,19.70
2019-04-05T07:39:14.614Z,19.70
2019-04-05T07:41:45.146Z,19.70
2019-04-05T07:44:15.737Z,19.50
2019-04-05T07:46:46.666Z,19.60
2019-04-05T07:49:17.301Z,19.80
2019-04-05T07:51:47.912Z,19.80
2019-04-05T07:54:18.539Z,19.70
2019-04-05T07:56:49.159Z,19.70
2019-04-05T07:59:21.008Z,19.70
2019-04-05T08:01:51.729Z,19.80
2019-04-05T08:04:22.295Z,19.80
2019-04-05T08:06:53.940Z,19.80
2019-04-05T08:09:26.951Z,19.70
2019-04-05T08:11:58.051Z,19.70
2019-04-05T08:14:29.491Z,19.70
2019-04-05T08:17:00.052Z,19.50
2019-04-05T08:19:30.639Z,19.30
2019-04-05T08:22:01.172Z,19.40
2019-04-05T08:24:32.759Z,19.40
2019-04-05T08:27:03.267Z,19.50
2019-04-05T08:29:33.789Z,19.60
2019-04-05T08:32:13.905Z,19.50
2019-04-05T08:34:36.517Z,19.50
2019-04-05T08:37:06.996Z,19.70
2019-04-05T08:39:37.564Z,19.80
2019-04-05T08:42:10.656Z,19.60
2019-04-05T08:44:40.172Z,19.80
2019-04-05T08:47:10.753Z,19.80
2019-04-05T08:49:41.395Z,19.70
2019-04-05T08:52:11.865Z,19.60
2019-04-05T08:54:42.465Z,19.50
2019-04-05T08:57:12.949Z,19.60
2019-04-05T08:59:43.495Z,19.60
2019-04-05T09:02:14.056Z,19.70
2019-04-05T09:04:44.593Z,19.70
2019-04-05T09:07:15.278Z,20.00
2019-04-05T09:09:45.875Z,20.20
2019-04-05T09:12:16.363Z,20.20
2019-04-05T09:14:46.913Z,20.10
2019-04-05T09:17:17.433Z,20.00
2019-04-05T09:19:47.997Z,20.10
2019-04-05T09:22:18.499Z,20.20
2019-04-05T09:24:49.075Z,20.20
2019-04-05T09:27:19.631Z,20.20
2019-04-05T09:29:50.165Z,20.30
2019-04-05T09:32:20.840Z,20.30
2019-04-05T09:34:51.325Z,20.30
2019-04-05T09:37:21.985Z,20.30
2019-04-05T09:39:52.473Z,20.20
2019-04-05T09:42:23.073Z,20.30
2019-04-05T09:44:53.676Z,20.40
2019-04-05T09:47:24.153Z,20.50
2019-04-05T09:49:54.684Z,20.60
2019-04-05T09:52:25.209Z,20.50
2019-04-05T09:54:55.751Z,20.40
2019-04-05T09:57:27.312Z,20.30
2019-04-05T09:59:57.886Z,20.40
2019-04-05T10:02:31.610Z,20.60
2019-04-05T10:05:00.692Z,20.60
2019-04-05T10:07:31.304Z,20.60
2019-04-05T10:10:01.874Z,20.60
2019-04-05T10:12:33.692Z,20.50
2019-04-05T10:15:04.671Z,20.40
2019-04-05T10:17:35.278Z,20.30
2019-04-05T10:20:06.879Z,20.40
2019-04-05T10:22:37.451Z,20.70
2019-04-05T10:25:08.315Z,20.70
2019-04-05T10:27:38.866Z,20.80
2019-04-05T10:30:12.487Z,20.60
2019-04-05T10:32:45.943Z,20.40
2019-04-05T10:35:15.393Z,20.50
2019-04-05T10:37:45.869Z,20.70
2019-04-05T10:40:16.783Z,20.90
2019-04-05T10:42:47.427Z,21.20
2019-04-05T10:45:18.734Z,21.30
2019-04-05T10:47:49.707Z,21.30
2019-04-05T10:50:20.777Z,21.10
2019-04-05T10:52:51.537Z,21.20
2019-04-05T10:55:22.369Z,21.30
2019-04-05T10:57:52.846Z,21.40
2019-04-05T11:00:23.963Z,21.40
2019-04-05T11:02:54.537Z,21.30
2019-04-05T11:05:25.150Z,21.20
2019-04-05T11:07:55.744Z,21.30
2019-04-05T11:10:26.361Z,21.30
2019-04-05T11:12:56.903Z,21.10
2019-04-05T11:15:28.766Z,21.30
2019-04-05T11:18:04.321Z,21.40
2019-04-05T11:20:33.587Z,21.40
2019-04-05T11:23:04.055Z,21.60
2019-04-05T11:25:34.564Z,21.90
2019-04-05T11:28:05.155Z,22.10
2019-04-05T11:30:45.555Z,21.70
2019-04-05T11:33:19.420Z,21.20
2019-04-05T11:35:48.669Z,21.00
2019-04-05T11:38:19.801Z,21.00
2019-04-05T11:40:50.522Z,20.80
2019-04-05T11:43:26.158Z,20.80
2019-04-05T11:45:55.910Z,20.90
2019-04-05T11:48:28.289Z,21.00
2019-04-05T11:50:58.916Z,21.20
2019-04-05T11:53:29.434Z,21.20
2019-04-05T11:56:13.499Z,21.20
2019-04-05T11:58:32.587Z,21.20
2019-04-05T12:01:23.470Z,21.20
2019-04-05T12:03:53.734Z,21.00
2019-04-05T12:06:24.229Z,20.90
2019-04-05T12:08:54.805Z,20.70
2019-04-05T12:11:25.386Z,20.50
2019-04-05T12:13:56.088Z,20.40
2019-04-05T12:16:27.167Z,20.30
2019-04-05T12:18:59.085Z,20.60
2019-04-05T12:21:29.836Z,20.90
2019-04-05T12:24:00.482Z,21.20
2019-04-05T12:26:34.518Z,21.60
2019-04-05T12:29:05.136Z,21.90
2019-04-05T12:31:35.717Z,22.10
2019-04-05T12:34:06.223Z,22.20
2019-04-05T12:36:36.812Z,22.40
2019-04-05T12:39:08.893Z,22.50
2019-04-05T12:41:40.861Z,22.50
2019-04-05T12:44:14.161Z,22.70
2019-04-05T12:46:45.867Z,22.90
2019-04-05T12:49:15.875Z,23.20
2019-04-05T12:51:46.519Z,23.30
2019-04-05T12:54:17.099Z,23.60
2019-04-05T12:56:47.740Z,23.40
2019-04-05T12:59:18.216Z,23.40
2019-04-05T13:01:48.705Z,23.30
2019-04-05T13:04:20.667Z,23.30
2019-04-05T13:06:52.934Z,23.40
2019-04-05T13:09:24.681Z,23.40
2019-04-05T13:11:57.322Z,23.60
2019-04-05T13:14:27.524Z,23.60
2019-04-05T13:17:01.668Z,23.50
2019-04-05T13:19:30.613Z,23.20
2019-04-05T13:22:02.810Z,23.30
2019-04-05T13:24:34.151Z,23.50
2019-04-05T13:27:05.060Z,23.50
2019-04-05T13:29:35.667Z,23.60
2019-04-05T13:32:06.241Z,23.50
2019-04-05T13:34:36.816Z,23.20
2019-04-05T13:37:19.300Z,23.20
2019-04-05T13:39:39.390Z,23.30
2019-04-05T13:42:09.983Z,22.80
2019-04-05T13:44:40.456Z,22.50
2019-04-05T13:47:11.079Z,22.00
2019-04-05T13:49:43.833Z,21.70
2019-04-05T13:52:15.356Z,21.60
2019-04-05T13:54:45.803Z,21.60
2019-04-05T13:57:16.340Z,21.20
2019-04-05T13:59:46.868Z,21.00
2019-04-05T14:02:20.537Z,20.70
2019-04-05T14:04:49.537Z,20.80
2019-04-05T14:07:23.446Z,20.90
2019-04-05T14:09:52.206Z,21.00
2019-04-05T14:12:22.884Z,21.10
2019-04-05T14:14:53.438Z,21.10
2019-04-05T14:17:23.906Z,21.10
2019-04-05T14:19:54.656Z,21.20
2019-04-05T14:22:25.123Z,21.20
2019-04-05T14:24:56.815Z,21.20
2019-04-05T14:27:27.278Z,21.30
2019-04-05T14:29:57.712Z,21.40
2019-04-05T14:32:28.201Z,21.30
2019-04-05T14:34:58.764Z,21.20
2019-04-05T14:37:29.328Z,21.20
2019-04-05T14:39:59.846Z,21.10
2019-04-05T14:42:32.019Z,20.90
2019-04-05T14:45:02.794Z,20.90
2019-04-05T14:47:33.425Z,21.00
2019-04-05T14:50:03.976Z,20.80
2019-04-05T14:52:34.699Z,20.30
2019-04-05T14:55:06.031Z,20.20
2019-04-05T14:57:36.770Z,20.00
2019-04-05T15:00:08.525Z,19.90
2019-04-05T15:02:40.102Z,19.80
2019-04-05T15:05:10.978Z,19.80
2019-04-05T15:07:41.513Z,19.90
2019-04-05T15:10:12.144Z,19.90
2019-04-05T15:12:43.017Z,19.90
2019-04-05T15:15:14.124Z,19.90
2019-04-05T15:17:48.290Z,19.80
2019-04-05T15:20:17.067Z,19.80
2019-04-05T15:22:47.588Z,19.80
2019-04-05T15:25:21.532Z,19.70
2019-04-05T15:27:55.152Z,19.60
2019-04-05T15:30:25.703Z,19.60
2019-04-05T15:32:57.779Z,19.60
2019-04-05T15:35:28.254Z,19.60
2019-04-05T15:38:01.575Z,19.50
2019-04-05T15:40:31.700Z,19.50
2019-04-05T15:43:02.285Z,19.40
2019-04-05T15:45:33.246Z,19.40
2019-04-05T15:48:03.726Z,19.40
2019-04-05T15:50:34.279Z,19.40
2019-04-05T15:53:04.754Z,19.50
2019-04-05T15:55:35.342Z,19.50
2019-04-05T15:58:06.958Z,19.50
2019-04-05T16:00:45.202Z,19.50
2019-04-05T16:03:16.172Z,19.50
2019-04-05T16:05:47.061Z,19.60
2019-04-05T16:08:19.121Z,19.60
2019-04-05T16:10:49.762Z,19.60
2019-04-05T16:13:20.288Z,19.70
2019-04-05T16:15:50.778Z,19.60
2019-04-05T16:18:21.432Z,19.60
2019-04-05T16:20:51.924Z,19.50
2019-04-05T16:23:22.610Z,19.40
2019-04-05T16:25:53.103Z,19.30
2019-04-05T16:28:23.688Z,19.30
2019-04-05T16:30:54.301Z,19.20
2019-04-05T16:33:24.870Z,19.20
2019-04-05T16:35:55.290Z,19.10
2019-04-05T16:38:25.912Z,19.00
2019-04-05T16:40:56.416Z,18.90
2019-04-05T16:43:27.021Z,18.90
2019-04-05T16:45:57.520Z,18.80
2019-04-05T16:48:28.057Z,18.80
2019-04-05T16:50:58.636Z,18.70
2019-04-05T16:53:29.319Z,18.70
2019-04-05T16:55:59.807Z,18.60
2019-04-05T16:58:30.379Z,18.60
2019-04-05T17:01:02.080Z,18.50
2019-04-05T17:03:32.628Z,18.40
2019-04-05T17:06:03.132Z,18.40
2019-04-05T17:08:33.730Z,18.40
2019-04-05T17:11:05.612Z,18.20
2019-04-05T17:13:36.245Z,18.10
2019-04-05T17:16:06.869Z,18.00
2019-04-05T17:18:37.414Z,18.00
2019-04-05T17:21:08.031Z,18.00
2019-04-05T17:23:38.600Z,17.90
2019-04-05T17:26:09.316Z,17.90
2019-04-05T17:28:39.886Z,17.90
2019-04-05T17:31:10.476Z,17.90
2019-04-05T17:33:41.029Z,17.90
2019-04-05T17:36:12.658Z,17.80
2019-04-05T17:38:43.185Z,17.70
2019-04-05T17:41:13.637Z,17.60
2019-04-05T17:43:44.243Z,17.60
2019-04-05T17:46:15.685Z,17.50
2019-04-05T17:48:46.214Z,17.30
2019-04-05T17:51:16.763Z,17.20
2019-04-05T17:53:47.341Z,17.20
2019-04-05T17:56:17.898Z,17.20
2019-04-05T17:58:49.861Z,17.10
2019-04-05T18:01:20.410Z,17.10
2019-04-05T18:03:51.159Z,17.00
2019-04-05T18:06:21.720Z,17.00
2019-04-05T18:08:52.272Z,16.90
2019-04-05T18:11:24.322Z,16.80
2019-04-05T18:13:54.824Z,16.80
2019-04-05T18:16:25.354Z,16.70
2019-04-05T18:18:56.785Z,16.60
2019-04-05T18:21:29.412Z,16.50
2019-04-05T18:23:59.986Z,16.50
2019-04-05T18:26:30.543Z,16.30
2019-04-05T18:29:01.720Z,16.30
2019-04-05T18:31:33.733Z,16.20
2019-04-05T18:34:05.425Z,16.20
2019-04-05T18:36:36.001Z,16.10
2019-04-05T18:39:08.250Z,16.10
2019-04-05T18:41:39.047Z,16.00
2019-04-05T18:44:11.236Z,15.90
2019-04-05T18:46:43.976Z,15.70
2019-04-05T18:49:16.756Z,15.60
2019-04-05T18:51:47.359Z,15.60
2019-04-05T18:54:18.056Z,15.60
2019-04-05T18:56:49.051Z,15.80
2019-04-05T18:59:19.708Z,15.90
2019-04-05T19:01:50.287Z,16.10
2019-04-05T19:04:20.787Z,16.10
2019-04-05T19:06:51.317Z,16.00
2019-04-05T19:09:23.629Z,16.00
2019-04-05T19:11:54.218Z,16.00
2019-04-05T19:14:24.787Z,16.00
2019-04-05T19:16:55.343Z,16.10
2019-04-05T19:19:25.948Z,16.10
2019-04-05T19:21:57.700Z,16.10
2019-04-05T19:24:28.218Z,16.10
2019-04-05T19:26:58.912Z,16.10
2019-04-05T19:29:29.639Z,16.00
2019-04-05T19:49:50.373Z,15.40
2019-04-05T19:52:20.942Z,15.30
2019-04-05T19:54:51.508Z,15.20
2019-04-05T19:57:22.217Z,15.20
2019-04-05T19:59:52.709Z,15.10
2019-04-05T20:02:23.301Z,15.00
2019-04-05T20:04:53.959Z,15.00
2019-04-05T20:07:24.587Z,14.90
2019-04-05T20:09:55.477Z,15.00
2019-04-05T20:12:26.074Z,14.90
2019-04-05T20:14:57.011Z,15.00
2019-04-05T20:17:27.664Z,14.90
2019-04-05T20:19:58.316Z,14.80
2019-04-05T20:22:28.804Z,14.70
2019-04-05T20:24:59.440Z,14.70
2019-04-05T20:27:29.947Z,14.60
2019-04-05T20:30:00.558Z,14.40
2019-04-05T20:32:31.115Z,14.30
2019-04-05T20:35:01.683Z,14.20
2019-04-05T20:37:32.304Z,14.10
2019-04-05T20:40:02.747Z,14.20
2019-04-05T20:42:34.505Z,14.10
2019-04-05T20:45:06.187Z,14.10
2019-04-05T20:47:36.929Z,14.00
2019-04-05T20:50:08.218Z,14.10
2019-04-05T20:52:38.873Z,14.00
2019-04-05T20:55:09.645Z,14.00
2019-04-05T20:57:40.251Z,14.00
2019-04-05T21:00:13.029Z,14.00
2019-04-05T21:02:43.600Z,13.90
2019-04-05T21:05:20.636Z,13.90
2019-04-05T21:07:46.573Z,13.90
2019-04-05T21:10:18.882Z,13.90
2019-04-05T21:12:49.495Z,13.90
2019-04-05T21:15:20.086Z,13.90
2019-04-05T21:17:50.734Z,13.90
2019-04-05T21:20:21.221Z,13.90
2019-04-05T21:22:52.329Z,13.80
2019-04-05T21:25:23.040Z,13.80
2019-04-05T21:27:55.908Z,13.80
2019-04-05T21:30:26.509Z,13.80
2019-04-05T21:32:57.052Z,13.80
2019-04-05T21:35:27.559Z,13.80
2019-04-05T21:37:58.081Z,13.80
2019-04-05T21:40:28.667Z,13.70
2019-04-05T21:42:59.259Z,13.60
2019-04-05T21:45:30.440Z,13.40
2019-04-05T21:48:00.983Z,13.30
2019-04-05T21:50:31.603Z,13.10
2019-04-05T21:53:03.502Z,13.00
2019-04-05T21:55:34.169Z,12.90
2019-04-05T21:58:04.772Z,12.90
2019-04-05T22:00:44.149Z,12.80
2019-04-05T22:03:15.726Z,12.80
2019-04-05T22:05:46.331Z,12.80
2019-04-05T22:08:16.842Z,12.80
2019-04-05T22:10:48.417Z,12.80
2019-04-05T22:13:19.075Z,12.70
2019-04-05T22:15:49.837Z,12.70
2019-04-05T22:18:20.488Z,12.60
2019-04-05T22:20:51.302Z,12.70
2019-04-05T22:23:21.817Z,12.70
2019-04-05T22:25:52.293Z,12.70
2019-04-05T22:28:22.783Z,12.60
2019-04-05T22:30:54.327Z,12.50
2019-04-05T22:33:24.821Z,12.50
2019-04-05T22:35:55.303Z,12.40
2019-04-05T22:38:25.789Z,12.30
2019-04-05T22:40:56.351Z,12.40
2019-04-05T22:43:28.527Z,12.30
2019-04-05T22:45:59.137Z,12.20
2019-04-05T22:48:29.702Z,12.20
2019-04-05T22:51:00.312Z,12.10
2019-04-05T22:53:30.885Z,12.10
2019-04-05T22:56:01.510Z,12.10
2019-04-05T22:58:32.115Z,12.00
2019-04-05T23:01:02.637Z,11.90
2019-04-05T23:03:33.200Z,11.90
2019-04-05T23:06:03.695Z,11.90
2019-04-05T23:08:34.317Z,11.80
2019-04-05T23:11:04.805Z,11.80
2019-04-05T23:13:35.427Z,11.90
2019-04-05T23:16:05.878Z,11.90
2019-04-05T23:18:36.409Z,12.00
2019-04-05T23:21:06.928Z,12.00
2019-04-05T23:23:37.559Z,12.10
2019-04-05T23:26:08.150Z,12.00
2019-04-05T23:28:38.654Z,12.00
2019-04-05T23:31:09.212Z,12.00
2019-04-05T23:33:39.679Z,12.00
2019-04-05T23:36:10.217Z,12.00
2019-04-05T23:38:40.693Z,12.10
2019-04-05T23:41:11.279Z,12.00
2019-04-05T23:43:41.719Z,12.10
2019-04-05T23:46:12.252Z,12.10
2019-04-05T23:48:43.799Z,12.00
2019-04-05T23:51:14.446Z,12.00
2019-04-05T23:53:44.977Z,11.90
2019-04-05T23:56:15.588Z,11.90
2019-04-05T23:58:46.079Z,11.80
